sensor_id;sensor_type;location;lat;lon;timestamp;temperature;humidity
14850;DHT22;7517;48.400;11.770;2022-07-18T00:01:50;20.20;51.60
14850;DHT22;7517;48.400;11.770;2022-07-18T00:04:17;20.20;51.70
14850;DHT22;7517;48.400;11.770;2022-07-18T00:06:44;20.20;51.80
14850;DHT22;7517;48.400;11.770;2022-07-18T00:09:12;20.10;51.80
14850;DHT22;7517;48.400;11.770;2022-07-18T00:11:39;20.10;51.80
14850;DHT22;7517;48.400;11.770;2022-07-18T00:14:08;20.10;52.00
14850;DHT22;7517;48.400;11.770;2022-07-18T00:16:35;20.00;52.30
14850;DHT22;7517;48.400;11.770;2022-07-18T00:19:02;20.00;52.40
14850;DHT22;7517;48.400;11.770;2022-07-18T00:21:30;20.00;52.60
14850;DHT22;7517;48.400;11.770;2022-07-18T00:23:57;20.00;52.50
14850;DHT22;7517;48.400;11.770;2022-07-18T00:26:24;19.90;52.50
14850;DHT22;7517;48.400;11.770;2022-07-18T00:28:51;19.90;52.50
14850;DHT22;7517;48.400;11.770;2022-07-18T00:31:20;19.90;52.60
14850;DHT22;7517;48.400;11.770;2022-07-18T00:33:47;19.80;52.70
14850;DHT22;7517;48.400;11.770;2022-07-18T00:36:14;19.80;52.80
14850;DHT22;7517;48.400;11.770;2022-07-18T00:38:41;19.70;53.00
14850;DHT22;7517;48.400;11.770;2022-07-18T00:41:08;19.70;53.20
14850;DHT22;7517;48.400;11.770;2022-07-18T00:43:36;19.70;53.40
14850;DHT22;7517;48.400;11.770;2022-07-18T00:46:03;19.60;53.30
14850;DHT22;7517;48.400;11.770;2022-07-18T00:48:32;19.60;53.40
14850;DHT22;7517;48.400;11.770;2022-07-18T00:50:59;19.60;53.50
14850;DHT22;7517;48.400;11.770;2022-07-18T00:53:26;19.50;54.10
14850;DHT22;7517;48.400;11.770;2022-07-18T00:55:54;19.50;53.80
14850;DHT22;7517;48.400;11.770;2022-07-18T00:58:21;19.40;53.90
14850;DHT22;7517;48.400;11.770;2022-07-18T01:00:49;19.40;54.00
14850;DHT22;7517;48.400;11.770;2022-07-18T01:03:35;19.40;54.10
14850;DHT22;7517;48.400;11.770;2022-07-18T01:06:02;19.30;54.00
14850;DHT22;7517;48.400;11.770;2022-07-18T01:08:29;19.30;54.00
14850;DHT22;7517;48.400;11.770;2022-07-18T01:10:58;19.30;54.30
14850;DHT22;7517;48.400;11.770;2022-07-18T01:13:25;19.30;54.20
14850;DHT22;7517;48.400;11.770;2022-07-18T01:15:53;19.30;54.30
14850;DHT22;7517;48.400;11.770;2022-07-18T01:18:20;19.20;54.30
14850;DHT22;7517;48.400;11.770;2022-07-18T01:20:49;19.20;54.40
14850;DHT22;7517;48.400;11.770;2022-07-18T01:23:16;19.20;54.40
14850;DHT22;7517;48.400;11.770;2022-07-18T01:25:43;19.20;54.40
14850;DHT22;7517;48.400;11.770;2022-07-18T01:28:11;19.10;54.30
14850;DHT22;7517;48.400;11.770;2022-07-18T01:30:38;19.10;54.20
14850;DHT22;7517;48.400;11.770;2022-07-18T01:33:06;19.10;54.40
14850;DHT22;7517;48.400;11.770;2022-07-18T01:35:33;19.10;54.50
14850;DHT22;7517;48.400;11.770;2022-07-18T01:38:03;19.00;54.50
14850;DHT22;7517;48.400;11.770;2022-07-18T01:40:31;19.00;54.60
14850;DHT22;7517;48.400;11.770;2022-07-18T01:42:58;19.00;54.50
14850;DHT22;7517;48.400;11.770;2022-07-18T01:45:25;19.00;54.50
14850;DHT22;7517;48.400;11.770;2022-07-18T01:47:53;18.90;54.50
14850;DHT22;7517;48.400;11.770;2022-07-18T01:50:20;18.90;54.60
14850;DHT22;7517;48.400;11.770;2022-07-18T01:52:47;18.90;54.70
14850;DHT22;7517;48.400;11.770;2022-07-18T01:55:16;18.80;54.90
14850;DHT22;7517;48.400;11.770;2022-07-18T01:57:43;18.80;55.20
14850;DHT22;7517;48.400;11.770;2022-07-18T02:00:11;18.80;55.30
14850;DHT22;7517;48.400;11.770;2022-07-18T02:02:39;18.80;55.40
14850;DHT22;7517;48.400;11.770;2022-07-18T02:05:07;18.70;55.40
14850;DHT22;7517;48.400;11.770;2022-07-18T02:07:36;18.70;55.40
14850;DHT22;7517;48.400;11.770;2022-07-18T02:10:06;18.70;55.50
14850;DHT22;7517;48.400;11.770;2022-07-18T02:12:37;18.60;55.60
14850;DHT22;7517;48.400;11.770;2022-07-18T02:15:07;18.70;55.70
14850;DHT22;7517;48.400;11.770;2022-07-18T02:17:36;18.60;55.50
14850;DHT22;7517;48.400;11.770;2022-07-18T02:20:04;18.60;55.50
14850;DHT22;7517;48.400;11.770;2022-07-18T02:22:33;18.50;55.50
14850;DHT22;7517;48.400;11.770;2022-07-18T02:25:00;18.50;55.60
14850;DHT22;7517;48.400;11.770;2022-07-18T02:27:27;18.50;55.70
14850;DHT22;7517;48.400;11.770;2022-07-18T02:29:56;18.50;55.80
14850;DHT22;7517;48.400;11.770;2022-07-18T02:32:23;18.40;56.00
14850;DHT22;7517;48.400;11.770;2022-07-18T02:34:51;18.40;56.20
14850;DHT22;7517;48.400;11.770;2022-07-18T02:37:19;18.40;56.30
14850;DHT22;7517;48.400;11.770;2022-07-18T02:39:46;18.40;56.30
14850;DHT22;7517;48.400;11.770;2022-07-18T02:42:13;18.40;56.30
14850;DHT22;7517;48.400;11.770;2022-07-18T02:44:41;18.40;56.30
14850;DHT22;7517;48.400;11.770;2022-07-18T02:47:10;18.30;56.30
14850;DHT22;7517;48.400;11.770;2022-07-18T02:49:37;18.30;56.30
14850;DHT22;7517;48.400;11.770;2022-07-18T02:52:07;18.30;56.40
14850;DHT22;7517;48.400;11.770;2022-07-18T02:54:36;18.30;56.40
14850;DHT22;7517;48.400;11.770;2022-07-18T02:57:05;18.30;56.50
14850;DHT22;7517;48.400;11.770;2022-07-18T02:59:32;18.30;56.50
14850;DHT22;7517;48.400;11.770;2022-07-18T03:02:00;18.20;56.40
14850;DHT22;7517;48.400;11.770;2022-07-18T03:04:30;18.20;56.50
14850;DHT22;7517;48.400;11.770;2022-07-18T03:06:57;18.20;56.60
14850;DHT22;7517;48.400;11.770;2022-07-18T03:09:25;18.10;56.50
14850;DHT22;7517;48.400;11.770;2022-07-18T03:11:53;18.10;56.50
14850;DHT22;7517;48.400;11.770;2022-07-18T03:14:21;18.10;56.70
14850;DHT22;7517;48.400;11.770;2022-07-18T03:16:48;18.10;57.00
14850;DHT22;7517;48.400;11.770;2022-07-18T03:19:16;18.00;57.00
14850;DHT22;7517;48.400;11.770;2022-07-18T03:21:44;18.00;57.10
14850;DHT22;7517;48.400;11.770;2022-07-18T03:24:12;18.00;57.40
14850;DHT22;7517;48.400;11.770;2022-07-18T03:26:40;18.00;58.00
14850;DHT22;7517;48.400;11.770;2022-07-18T03:29:08;18.00;57.40
14850;DHT22;7517;48.400;11.770;2022-07-18T03:31:36;18.00;57.40
14850;DHT22;7517;48.400;11.770;2022-07-18T03:34:03;17.90;57.30
14850;DHT22;7517;48.400;11.770;2022-07-18T03:36:31;17.90;57.40
14850;DHT22;7517;48.400;11.770;2022-07-18T03:39:00;17.90;57.40
14850;DHT22;7517;48.400;11.770;2022-07-18T03:41:27;17.90;57.40
14850;DHT22;7517;48.400;11.770;2022-07-18T03:43:54;17.80;57.30
14850;DHT22;7517;48.400;11.770;2022-07-18T03:46:22;17.80;57.50
14850;DHT22;7517;48.400;11.770;2022-07-18T03:48:49;17.80;57.50
14850;DHT22;7517;48.400;11.770;2022-07-18T03:51:16;17.80;57.60
14850;DHT22;7517;48.400;11.770;2022-07-18T03:53:43;17.80;57.60
14850;DHT22;7517;48.400;11.770;2022-07-18T03:56:12;17.80;57.50
14850;DHT22;7517;48.400;11.770;2022-07-18T03:58:39;17.80;57.50
14850;DHT22;7517;48.400;11.770;2022-07-18T04:01:06;17.80;57.50
14850;DHT22;7517;48.400;11.770;2022-07-18T04:03:33;17.80;57.50
14850;DHT22;7517;48.400;11.770;2022-07-18T04:06:01;17.80;57.60
14850;DHT22;7517;48.400;11.770;2022-07-18T04:08:28;17.70;58.10
14850;DHT22;7517;48.400;11.770;2022-07-18T04:10:55;17.70;57.60
14850;DHT22;7517;48.400;11.770;2022-07-18T04:13:24;17.70;57.60
14850;DHT22;7517;48.400;11.770;2022-07-18T04:15:51;17.60;57.60
14850;DHT22;7517;48.400;11.770;2022-07-18T04:18:18;17.70;57.60
14850;DHT22;7517;48.400;11.770;2022-07-18T04:20:45;17.60;57.60
14850;DHT22;7517;48.400;11.770;2022-07-18T04:23:12;17.60;57.80
14850;DHT22;7517;48.400;11.770;2022-07-18T04:25:41;17.60;58.00
14850;DHT22;7517;48.400;11.770;2022-07-18T04:28:10;17.60;58.20
14850;DHT22;7517;48.400;11.770;2022-07-18T04:30:42;17.60;58.30
14850;DHT22;7517;48.400;11.770;2022-07-18T04:33:11;17.60;58.40
14850;DHT22;7517;48.400;11.770;2022-07-18T04:35:39;17.50;58.30
14850;DHT22;7517;48.400;11.770;2022-07-18T04:38:08;17.50;58.50
14850;DHT22;7517;48.400;11.770;2022-07-18T04:40:37;17.50;58.50
14850;DHT22;7517;48.400;11.770;2022-07-18T04:43:05;17.50;58.60
14850;DHT22;7517;48.400;11.770;2022-07-18T04:45:33;17.50;58.60
14850;DHT22;7517;48.400;11.770;2022-07-18T04:48:03;17.50;58.60
14850;DHT22;7517;48.400;11.770;2022-07-18T04:50:31;17.50;58.60
14850;DHT22;7517;48.400;11.770;2022-07-18T04:52:59;17.50;58.60
14850;DHT22;7517;48.400;11.770;2022-07-18T04:55:26;17.50;58.60
14850;DHT22;7517;48.400;11.770;2022-07-18T04:57:54;17.50;58.60
14850;DHT22;7517;48.400;11.770;2022-07-18T05:00:23;17.50;58.50
14850;DHT22;7517;48.400;11.770;2022-07-18T05:02:55;17.60;58.60
14850;DHT22;7517;48.400;11.770;2022-07-18T05:05:25;17.60;58.70
14850;DHT22;7517;48.400;11.770;2022-07-18T05:07:54;17.60;58.70
14850;DHT22;7517;48.400;11.770;2022-07-18T05:10:23;17.60;58.80
14850;DHT22;7517;48.400;11.770;2022-07-18T05:12:52;17.70;59.00
14850;DHT22;7517;48.400;11.770;2022-07-18T05:15:22;17.70;59.00
14850;DHT22;7517;48.400;11.770;2022-07-18T05:17:51;17.70;58.90
14850;DHT22;7517;48.400;11.770;2022-07-18T05:20:21;17.70;58.90
14850;DHT22;7517;48.400;11.770;2022-07-18T05:22:51;17.80;59.10
14850;DHT22;7517;48.400;11.770;2022-07-18T05:25:19;17.80;59.20
14850;DHT22;7517;48.400;11.770;2022-07-18T05:27:48;17.90;59.20
14850;DHT22;7517;48.400;11.770;2022-07-18T05:30:16;17.90;59.10
14850;DHT22;7517;48.400;11.770;2022-07-18T05:32:44;18.00;59.20
14850;DHT22;7517;48.400;11.770;2022-07-18T05:35:12;18.00;59.20
14850;DHT22;7517;48.400;11.770;2022-07-18T05:37:40;18.10;59.10
14850;DHT22;7517;48.400;11.770;2022-07-18T05:40:11;18.20;59.20
14850;DHT22;7517;48.400;11.770;2022-07-18T05:42:40;18.30;59.30
14850;DHT22;7517;48.400;11.770;2022-07-18T05:45:08;18.30;59.10
14850;DHT22;7517;48.400;11.770;2022-07-18T05:47:36;18.40;59.20
14850;DHT22;7517;48.400;11.770;2022-07-18T05:50:05;18.40;59.30
14850;DHT22;7517;48.400;11.770;2022-07-18T05:52:33;18.50;59.40
14850;DHT22;7517;48.400;11.770;2022-07-18T05:55:00;18.60;59.50
14850;DHT22;7517;48.400;11.770;2022-07-18T05:57:29;18.70;59.60
14850;DHT22;7517;48.400;11.770;2022-07-18T05:59:56;18.70;59.50
14850;DHT22;7517;48.400;11.770;2022-07-18T06:02:23;18.80;59.30
14850;DHT22;7517;48.400;11.770;2022-07-18T06:04:50;18.90;59.20
14850;DHT22;7517;48.400;11.770;2022-07-18T06:07:17;18.90;59.20
14850;DHT22;7517;48.400;11.770;2022-07-18T06:09:44;19.00;59.20
14850;DHT22;7517;48.400;11.770;2022-07-18T06:12:11;19.10;59.20
14850;DHT22;7517;48.400;11.770;2022-07-18T06:14:40;19.10;59.10
14850;DHT22;7517;48.400;11.770;2022-07-18T06:17:07;19.20;58.90
14850;DHT22;7517;48.400;11.770;2022-07-18T06:19:35;19.30;58.80
14850;DHT22;7517;48.400;11.770;2022-07-18T06:22:02;19.40;58.70
14850;DHT22;7517;48.400;11.770;2022-07-18T06:24:29;19.40;58.70
14850;DHT22;7517;48.400;11.770;2022-07-18T06:26:56;19.50;58.80
14850;DHT22;7517;48.400;11.770;2022-07-18T06:29:23;19.60;58.60
14850;DHT22;7517;48.400;11.770;2022-07-18T06:31:52;19.70;58.70
14850;DHT22;7517;48.400;11.770;2022-07-18T06:34:19;19.80;58.70
14850;DHT22;7517;48.400;11.770;2022-07-18T06:36:46;19.80;58.50
14850;DHT22;7517;48.400;11.770;2022-07-18T06:39:14;19.90;58.50
14850;DHT22;7517;48.400;11.770;2022-07-18T06:41:44;20.00;58.10
14850;DHT22;7517;48.400;11.770;2022-07-18T06:44:12;20.10;58.00
14850;DHT22;7517;48.400;11.770;2022-07-18T06:46:39;20.20;57.90
14850;DHT22;7517;48.400;11.770;2022-07-18T06:49:08;20.30;57.70
14850;DHT22;7517;48.400;11.770;2022-07-18T06:51:36;20.40;57.40
14850;DHT22;7517;48.400;11.770;2022-07-18T06:54:03;20.50;57.20
14850;DHT22;7517;48.400;11.770;2022-07-18T06:56:30;20.60;57.10
14850;DHT22;7517;48.400;11.770;2022-07-18T06:58:57;20.70;57.10
14850;DHT22;7517;48.400;11.770;2022-07-18T07:01:24;20.80;57.30
14850;DHT22;7517;48.400;11.770;2022-07-18T07:03:52;20.90;57.10
14850;DHT22;7517;48.400;11.770;2022-07-18T07:06:21;21.00;57.20
14850;DHT22;7517;48.400;11.770;2022-07-18T07:08:48;21.10;57.50
14850;DHT22;7517;48.400;11.770;2022-07-18T07:11:15;21.30;57.30
14850;DHT22;7517;48.400;11.770;2022-07-18T07:13:42;21.40;57.20
14850;DHT22;7517;48.400;11.770;2022-07-18T07:16:09;21.60;57.50
14850;DHT22;7517;48.400;11.770;2022-07-18T07:18:36;21.70;57.40
14850;DHT22;7517;48.400;11.770;2022-07-18T07:21:04;21.90;58.10
14850;DHT22;7517;48.400;11.770;2022-07-18T07:23:34;22.10;57.40
14850;DHT22;7517;48.400;11.770;2022-07-18T07:26:01;22.30;57.00
14850;DHT22;7517;48.400;11.770;2022-07-18T07:28:28;22.50;56.60
14850;DHT22;7517;48.400;11.770;2022-07-18T07:30:55;22.70;56.50
14850;DHT22;7517;48.400;11.770;2022-07-18T07:33:22;22.90;56.70
14850;DHT22;7517;48.400;11.770;2022-07-18T07:35:50;23.10;56.40
14850;DHT22;7517;48.400;11.770;2022-07-18T07:38:17;23.30;56.00
14850;DHT22;7517;48.400;11.770;2022-07-18T07:40:46;23.50;55.90
14850;DHT22;7517;48.400;11.770;2022-07-18T07:43:15;23.80;55.50
14850;DHT22;7517;48.400;11.770;2022-07-18T07:45:45;23.90;55.00
14850;DHT22;7517;48.400;11.770;2022-07-18T07:48:14;24.20;54.90
14850;DHT22;7517;48.400;11.770;2022-07-18T07:50:42;24.40;54.40
14850;DHT22;7517;48.400;11.770;2022-07-18T07:53:10;24.60;53.90
14850;DHT22;7517;48.400;11.770;2022-07-18T07:55:37;24.80;53.70
14850;DHT22;7517;48.400;11.770;2022-07-18T07:58:05;25.00;53.20
14850;DHT22;7517;48.400;11.770;2022-07-18T08:00:33;25.20;53.10
14850;DHT22;7517;48.400;11.770;2022-07-18T08:03:02;25.50;52.80
14850;DHT22;7517;48.400;11.770;2022-07-18T08:05:34;25.70;52.40
14850;DHT22;7517;48.400;11.770;2022-07-18T08:08:04;25.80;52.20
14850;DHT22;7517;48.400;11.770;2022-07-18T08:10:32;26.10;52.20
14850;DHT22;7517;48.400;11.770;2022-07-18T08:13:00;26.30;51.50
14850;DHT22;7517;48.400;11.770;2022-07-18T08:15:29;26.50;51.50
14850;DHT22;7517;48.400;11.770;2022-07-18T08:17:56;26.60;51.10
14850;DHT22;7517;48.400;11.770;2022-07-18T08:20:24;26.80;50.70
14850;DHT22;7517;48.400;11.770;2022-07-18T08:22:53;27.00;50.40
14850;DHT22;7517;48.400;11.770;2022-07-18T08:25:22;27.20;50.30
14850;DHT22;7517;48.400;11.770;2022-07-18T08:27:49;27.40;49.60
14850;DHT22;7517;48.400;11.770;2022-07-18T08:30:17;27.60;49.60
14850;DHT22;7517;48.400;11.770;2022-07-18T08:32:46;27.80;49.40
14850;DHT22;7517;48.400;11.770;2022-07-18T08:35:14;28.00;49.20
14850;DHT22;7517;48.400;11.770;2022-07-18T08:37:41;28.20;48.80
14850;DHT22;7517;48.400;11.770;2022-07-18T08:40:09;28.40;48.80
14850;DHT22;7517;48.400;11.770;2022-07-18T08:42:37;28.60;47.90
14850;DHT22;7517;48.400;11.770;2022-07-18T08:45:05;28.80;47.40
14850;DHT22;7517;48.400;11.770;2022-07-18T08:47:34;29.00;47.40
14850;DHT22;7517;48.400;11.770;2022-07-18T08:50:03;29.20;47.10
14850;DHT22;7517;48.400;11.770;2022-07-18T08:52:32;29.40;46.50
14850;DHT22;7517;48.400;11.770;2022-07-18T08:55:01;29.60;46.50
14850;DHT22;7517;48.400;11.770;2022-07-18T08:57:29;29.80;45.80
14850;DHT22;7517;48.400;11.770;2022-07-18T08:59:56;30.00;45.20
14850;DHT22;7517;48.400;11.770;2022-07-18T09:02:25;30.20;44.60
14850;DHT22;7517;48.400;11.770;2022-07-18T09:04:53;30.40;44.30
14850;DHT22;7517;48.400;11.770;2022-07-18T09:07:27;30.50;44.00
14850;DHT22;7517;48.400;11.770;2022-07-18T09:09:57;30.70;43.60
14850;DHT22;7517;48.400;11.770;2022-07-18T09:12:25;30.90;43.50
14850;DHT22;7517;48.400;11.770;2022-07-18T09:14:54;31.10;43.20
14850;DHT22;7517;48.400;11.770;2022-07-18T09:17:23;31.30;42.90
14850;DHT22;7517;48.400;11.770;2022-07-18T09:20:00;31.50;42.40
14850;DHT22;7517;48.400;11.770;2022-07-18T09:22:33;31.80;41.30
14850;DHT22;7517;48.400;11.770;2022-07-18T09:25:08;31.90;41.50
14850;DHT22;7517;48.400;11.770;2022-07-18T09:27:38;32.10;41.20
14850;DHT22;7517;48.400;11.770;2022-07-18T09:30:23;32.30;40.90
14850;DHT22;7517;48.400;11.770;2022-07-18T09:32:54;32.60;40.70
14850;DHT22;7517;48.400;11.770;2022-07-18T09:35:32;32.80;40.70
14850;DHT22;7517;48.400;11.770;2022-07-18T09:38:04;33.00;40.70
14850;DHT22;7517;48.400;11.770;2022-07-18T09:40:35;33.20;40.30
14850;DHT22;7517;48.400;11.770;2022-07-18T09:43:04;33.40;39.40
14850;DHT22;7517;48.400;11.770;2022-07-18T09:45:33;33.60;39.00
14850;DHT22;7517;48.400;11.770;2022-07-18T09:48:03;33.80;38.30
14850;DHT22;7517;48.400;11.770;2022-07-18T09:50:34;34.00;37.90
14850;DHT22;7517;48.400;11.770;2022-07-18T09:53:13;34.20;37.10
14850;DHT22;7517;48.400;11.770;2022-07-18T09:55:43;34.40;36.70
14850;DHT22;7517;48.400;11.770;2022-07-18T09:58:15;34.60;36.60
14850;DHT22;7517;48.400;11.770;2022-07-18T10:00:45;34.80;36.30
14850;DHT22;7517;48.400;11.770;2022-07-18T10:03:12;34.90;35.60
14850;DHT22;7517;48.400;11.770;2022-07-18T10:05:40;35.10;35.00
14850;DHT22;7517;48.400;11.770;2022-07-18T10:08:11;35.20;34.60
14850;DHT22;7517;48.400;11.770;2022-07-18T10:10:40;35.40;34.10
14850;DHT22;7517;48.400;11.770;2022-07-18T10:13:09;35.50;33.60
14850;DHT22;7517;48.400;11.770;2022-07-18T10:15:38;35.60;33.30
14850;DHT22;7517;48.400;11.770;2022-07-18T10:18:12;35.80;33.20
14850;DHT22;7517;48.400;11.770;2022-07-18T10:20:42;35.90;33.00
14850;DHT22;7517;48.400;11.770;2022-07-18T10:23:17;36.10;32.60
14850;DHT22;7517;48.400;11.770;2022-07-18T10:26:07;36.30;32.70
14850;DHT22;7517;48.400;11.770;2022-07-18T10:32:01;36.50;30.30
14850;DHT22;7517;48.400;11.770;2022-07-18T10:34:32;36.70;31.00
14850;DHT22;7517;48.400;11.770;2022-07-18T10:37:08;36.70;30.00
14850;DHT22;7517;48.400;11.770;2022-07-18T10:39:39;36.80;30.40
14850;DHT22;7517;48.400;11.770;2022-07-18T10:42:29;36.80;29.30
14850;DHT22;7517;48.400;11.770;2022-07-18T10:44:56;37.00;28.80
14850;DHT22;7517;48.400;11.770;2022-07-18T10:47:28;37.00;29.50
14850;DHT22;7517;48.400;11.770;2022-07-18T10:50:07;37.10;29.10
14850;DHT22;7517;48.400;11.770;2022-07-18T10:52:57;37.10;29.30
14850;DHT22;7517;48.400;11.770;2022-07-18T10:55:33;37.10;29.90
14850;DHT22;7517;48.400;11.770;2022-07-18T10:58:21;37.20;29.20
14850;DHT22;7517;48.400;11.770;2022-07-18T11:00:52;37.20;28.90
14850;DHT22;7517;48.400;11.770;2022-07-18T11:03:27;37.10;29.30
14850;DHT22;7517;48.400;11.770;2022-07-18T11:05:56;37.00;28.80
14850;DHT22;7517;48.400;11.770;2022-07-18T11:08:24;36.90;28.30
14850;DHT22;7517;48.400;11.770;2022-07-18T11:11:13;36.70;28.50
14850;DHT22;7517;48.400;11.770;2022-07-18T11:13:44;36.50;29.10
14850;DHT22;7517;48.400;11.770;2022-07-18T11:16:18;36.30;28.80
14850;DHT22;7517;48.400;11.770;2022-07-18T11:19:21;36.00;28.40
14850;DHT22;7517;48.400;11.770;2022-07-18T11:21:58;35.80;27.50
14850;DHT22;7517;48.400;11.770;2022-07-18T11:24:26;35.50;28.00
14850;DHT22;7517;48.400;11.770;2022-07-18T11:26:56;35.30;28.20
14850;DHT22;7517;48.400;11.770;2022-07-18T11:29:23;35.00;28.50
14850;DHT22;7517;48.400;11.770;2022-07-18T11:31:52;34.80;28.70
14850;DHT22;7517;48.400;11.770;2022-07-18T11:34:22;34.60;29.00
14850;DHT22;7517;48.400;11.770;2022-07-18T11:36:50;34.40;28.80
14850;DHT22;7517;48.400;11.770;2022-07-18T11:39:30;34.30;28.70
14850;DHT22;7517;48.400;11.770;2022-07-18T11:42:00;34.10;28.60
14850;DHT22;7517;48.400;11.770;2022-07-18T11:44:27;34.00;28.90
14850;DHT22;7517;48.400;11.770;2022-07-18T11:47:05;33.90;29.10
14850;DHT22;7517;48.400;11.770;2022-07-18T11:49:33;33.80;28.70
14850;DHT22;7517;48.400;11.770;2022-07-18T11:52:01;33.70;29.00
14850;DHT22;7517;48.400;11.770;2022-07-18T11:54:29;33.50;28.90
14850;DHT22;7517;48.400;11.770;2022-07-18T11:56:59;33.40;29.30
14850;DHT22;7517;48.400;11.770;2022-07-18T11:59:40;33.30;29.30
14850;DHT22;7517;48.400;11.770;2022-07-18T12:02:09;33.30;29.30
14850;DHT22;7517;48.400;11.770;2022-07-18T12:04:38;33.20;29.20
14850;DHT22;7517;48.400;11.770;2022-07-18T12:07:15;33.10;29.40
14850;DHT22;7517;48.400;11.770;2022-07-18T12:09:44;33.10;29.40
14850;DHT22;7517;48.400;11.770;2022-07-18T12:12:14;33.00;29.60
14850;DHT22;7517;48.400;11.770;2022-07-18T12:14:51;33.00;29.70
14850;DHT22;7517;48.400;11.770;2022-07-18T12:17:19;32.90;29.60
14850;DHT22;7517;48.400;11.770;2022-07-18T12:19:46;32.90;29.70
14850;DHT22;7517;48.400;11.770;2022-07-18T12:22:14;32.90;29.90
14850;DHT22;7517;48.400;11.770;2022-07-18T12:24:51;32.90;30.20
14850;DHT22;7517;48.400;11.770;2022-07-18T12:27:22;32.90;30.10
14850;DHT22;7517;48.400;11.770;2022-07-18T12:30:07;32.90;30.00
14850;DHT22;7517;48.400;11.770;2022-07-18T12:32:42;32.90;30.20
14850;DHT22;7517;48.400;11.770;2022-07-18T12:35:12;32.90;29.90
14850;DHT22;7517;48.400;11.770;2022-07-18T12:37:41;32.90;29.90
14850;DHT22;7517;48.400;11.770;2022-07-18T12:40:18;32.90;29.70
14850;DHT22;7517;48.400;11.770;2022-07-18T12:42:47;32.80;29.50
14850;DHT22;7517;48.400;11.770;2022-07-18T12:45:14;32.80;29.70
14850;DHT22;7517;48.400;11.770;2022-07-18T12:47:42;32.80;29.80
14850;DHT22;7517;48.400;11.770;2022-07-18T12:50:09;32.80;29.80
14850;DHT22;7517;48.400;11.770;2022-07-18T12:52:36;32.80;29.50
14850;DHT22;7517;48.400;11.770;2022-07-18T12:55:04;32.70;29.70
14850;DHT22;7517;48.400;11.770;2022-07-18T12:57:32;32.70;29.70
14850;DHT22;7517;48.400;11.770;2022-07-18T13:00:02;32.70;29.40
14850;DHT22;7517;48.400;11.770;2022-07-18T13:02:30;32.70;30.00
14850;DHT22;7517;48.400;11.770;2022-07-18T13:04:57;32.70;29.90
14850;DHT22;7517;48.400;11.770;2022-07-18T13:07:24;32.70;30.10
14850;DHT22;7517;48.400;11.770;2022-07-18T13:09:54;32.60;30.70
14850;DHT22;7517;48.400;11.770;2022-07-18T13:12:22;32.60;30.30
14850;DHT22;7517;48.400;11.770;2022-07-18T13:14:49;32.70;30.00
14850;DHT22;7517;48.400;11.770;2022-07-18T13:17:21;32.60;30.00
14850;DHT22;7517;48.400;11.770;2022-07-18T13:19:49;32.70;30.20
14850;DHT22;7517;48.400;11.770;2022-07-18T13:22:17;32.60;30.10
14850;DHT22;7517;48.400;11.770;2022-07-18T13:24:44;32.60;30.60
14850;DHT22;7517;48.400;11.770;2022-07-18T13:27:11;32.70;30.20
14850;DHT22;7517;48.400;11.770;2022-07-18T13:29:38;32.60;30.00
14850;DHT22;7517;48.400;11.770;2022-07-18T13:32:06;32.70;30.20
14850;DHT22;7517;48.400;11.770;2022-07-18T13:34:36;32.70;30.00
14850;DHT22;7517;48.400;11.770;2022-07-18T13:37:03;32.70;29.70
14850;DHT22;7517;48.400;11.770;2022-07-18T13:39:30;32.70;29.90
14850;DHT22;7517;48.400;11.770;2022-07-18T13:41:57;32.60;29.80
14850;DHT22;7517;48.400;11.770;2022-07-18T13:44:28;32.60;29.70
14850;DHT22;7517;48.400;11.770;2022-07-18T13:46:55;32.70;30.20
14850;DHT22;7517;48.400;11.770;2022-07-18T13:49:22;32.60;30.10
14850;DHT22;7517;48.400;11.770;2022-07-18T13:51:50;32.70;30.00
14850;DHT22;7517;48.400;11.770;2022-07-18T13:54:18;32.70;30.00
14850;DHT22;7517;48.400;11.770;2022-07-18T13:56:45;32.70;30.00
14850;DHT22;7517;48.400;11.770;2022-07-18T13:59:13;32.70;30.00
14850;DHT22;7517;48.400;11.770;2022-07-18T14:01:41;32.70;29.80
14850;DHT22;7517;48.400;11.770;2022-07-18T14:04:09;32.70;29.80
14850;DHT22;7517;48.400;11.770;2022-07-18T14:06:36;32.70;29.80
14850;DHT22;7517;48.400;11.770;2022-07-18T14:09:05;32.60;29.70
14850;DHT22;7517;48.400;11.770;2022-07-18T14:11:33;32.70;29.90
14850;DHT22;7517;48.400;11.770;2022-07-18T14:14:00;32.70;29.70
14850;DHT22;7517;48.400;11.770;2022-07-18T14:16:28;32.60;29.70
14850;DHT22;7517;48.400;11.770;2022-07-18T14:18:56;32.60;29.60
14850;DHT22;7517;48.400;11.770;2022-07-18T14:21:24;32.60;29.80
14850;DHT22;7517;48.400;11.770;2022-07-18T14:23:51;32.60;29.90
14850;DHT22;7517;48.400;11.770;2022-07-18T14:26:21;32.60;30.20
14850;DHT22;7517;48.400;11.770;2022-07-18T14:28:48;32.60;30.10
14850;DHT22;7517;48.400;11.770;2022-07-18T14:31:15;32.60;30.40
14850;DHT22;7517;48.400;11.770;2022-07-18T14:33:42;32.60;30.60
14850;DHT22;7517;48.400;11.770;2022-07-18T14:36:09;32.60;30.70
14850;DHT22;7517;48.400;11.770;2022-07-18T14:38:37;32.60;30.00
14850;DHT22;7517;48.400;11.770;2022-07-18T14:41:05;32.60;30.00
14850;DHT22;7517;48.400;11.770;2022-07-18T14:43:34;32.60;30.10
14850;DHT22;7517;48.400;11.770;2022-07-18T14:46:02;32.60;30.10
14850;DHT22;7517;48.400;11.770;2022-07-18T14:48:29;32.60;30.00
14850;DHT22;7517;48.400;11.770;2022-07-18T14:50:56;32.70;30.00
14850;DHT22;7517;48.400;11.770;2022-07-18T14:53:23;32.70;30.10
14850;DHT22;7517;48.400;11.770;2022-07-18T14:55:51;32.60;30.20
14850;DHT22;7517;48.400;11.770;2022-07-18T14:58:18;32.60;30.20
14850;DHT22;7517;48.400;11.770;2022-07-18T15:00:46;32.60;30.00
14850;DHT22;7517;48.400;11.770;2022-07-18T15:03:17;32.60;29.90
14850;DHT22;7517;48.400;11.770;2022-07-18T15:05:44;32.70;29.90
14850;DHT22;7517;48.400;11.770;2022-07-18T15:08:11;32.60;30.00
14850;DHT22;7517;48.400;11.770;2022-07-18T15:10:38;32.60;30.00
14850;DHT22;7517;48.400;11.770;2022-07-18T15:13:05;32.60;30.30
14850;DHT22;7517;48.400;11.770;2022-07-18T15:15:32;32.60;30.70
14850;DHT22;7517;48.400;11.770;2022-07-18T15:18:01;32.60;30.30
14850;DHT22;7517;48.400;11.770;2022-07-18T15:20:31;32.60;30.10
14850;DHT22;7517;48.400;11.770;2022-07-18T15:22:58;32.70;30.10
14850;DHT22;7517;48.400;11.770;2022-07-18T15:25:26;32.60;30.20
14850;DHT22;7517;48.400;11.770;2022-07-18T15:27:56;32.70;30.20
14850;DHT22;7517;48.400;11.770;2022-07-18T15:30:24;32.70;30.40
14850;DHT22;7517;48.400;11.770;2022-07-18T15:32:54;32.70;30.30
14850;DHT22;7517;48.400;11.770;2022-07-18T15:35:22;32.70;30.40
14850;DHT22;7517;48.400;11.770;2022-07-18T15:37:50;32.70;31.00
14850;DHT22;7517;48.400;11.770;2022-07-18T15:40:17;32.70;31.00
14850;DHT22;7517;48.400;11.770;2022-07-18T15:42:45;32.70;30.60
14850;DHT22;7517;48.400;11.770;2022-07-18T15:45:12;32.70;30.60